sensor_id;sensor_type;location;lat;lon;timestamp;pressure;altitude;pressure_sealevel;temperature;humidity
27334;BME280;14817;57.104;-2.094;2022-12-07T00:03:55;101595.06;;;1.85;100.00
27334;BME280;14817;57.104;-2.094;2022-12-07T00:06:36;101593.63;;;1.78;100.00
27334;BME280;14817;57.104;-2.094;2022-12-07T00:09:05;101597.91;;;1.80;100.00
27334;BME280;14817;57.104;-2.094;2022-12-07T00:11:33;101610.31;;;1.78;100.00
27334;BME280;14817;57.104;-2.094;2022-12-07T00:14:03;101608.75;;;1.74;100.00
27334;BME280;14817;57.104;-2.094;2022-12-07T00:16:32;101603.47;;;1.74;100.00
27334;BME280;14817;57.104;-2.094;2022-12-07T00:19:00;101601.09;;;1.68;100.00
27334;BME280;14817;57.104;-2.094;2022-12-07T00:21:29;101595.75;;;1.70;100.00
27334;BME280;14817;57.104;-2.094;2022-12-07T00:23:56;101600.56;;;1.60;100.00
27334;BME280;14817;57.104;-2.094;2022-12-07T00:26:26;101590.31;;;1.54;100.00
27334;BME280;14817;57.104;-2.094;2022-12-07T00:31:46;101584.31;;;1.50;100.00
27334;BME280;14817;57.104;-2.094;2022-12-07T00:34:17;101580.66;;;1.53;100.00
27334;BME280;14817;57.104;-2.094;2022-12-07T00:36:44;101581.66;;;1.50;100.00
27334;BME280;14817;57.104;-2.094;2022-12-07T00:39:11;101576.34;;;1.52;100.00
27334;BME280;14817;57.104;-2.094;2022-12-07T00:41:38;101568.31;;;1.53;100.00
27334;BME280;14817;57.104;-2.094;2022-12-07T00:44:04;101575.38;;;1.53;100.00
27334;BME280;14817;57.104;-2.094;2022-12-07T00:46:32;101577.19;;;1.52;100.00
27334;BME280;14817;57.104;-2.094;2022-12-07T00:49:02;101573.75;;;1.50;100.00
27334;BME280;14817;57.104;-2.094;2022-12-07T00:51:29;101578.19;;;1.50;100.00
27334;BME280;14817;57.104;-2.094;2022-12-07T00:53:56;101571.63;;;1.58;100.00
27334;BME280;14817;57.104;-2.094;2022-12-07T00:56:25;101571.25;;;1.66;100.00
27334;BME280;14817;57.104;-2.094;2022-12-07T00:59:00;101565.78;;;1.71;100.00
27334;BME280;14817;57.104;-2.094;2022-12-07T01:01:30;101572.34;;;1.81;100.00
27334;BME280;14817;57.104;-2.094;2022-12-07T01:03:58;101579.22;;;1.85;100.00
27334;BME280;14817;57.104;-2.094;2022-12-07T01:06:28;101573.81;;;1.88;100.00
27334;BME280;14817;57.104;-2.094;2022-12-07T01:08:55;101575.56;;;1.88;100.00
27334;BME280;14817;57.104;-2.094;2022-12-07T01:11:24;101565.22;;;1.83;100.00
27334;BME280;14817;57.104;-2.094;2022-12-07T01:13:52;101562.78;;;1.78;100.00
27334;BME280;14817;57.104;-2.094;2022-12-07T01:16:20;101565.72;;;1.72;100.00
27334;BME280;14817;57.104;-2.094;2022-12-07T01:18:51;101561.38;;;1.71;100.00
27334;BME280;14817;57.104;-2.094;2022-12-07T01:21:26;101558.84;;;1.68;100.00
27334;BME280;14817;57.104;-2.094;2022-12-07T01:23:54;101553.56;;;1.68;100.00
27334;BME280;14817;57.104;-2.094;2022-12-07T01:26:22;101552.66;;;1.69;100.00
27334;BME280;14817;57.104;-2.094;2022-12-07T01:28:50;101550.03;;;1.69;100.00
27334;BME280;14817;57.104;-2.094;2022-12-07T01:31:19;101543.09;;;1.67;100.00
27334;BME280;14817;57.104;-2.094;2022-12-07T01:33:49;101533.22;;;1.70;100.00
27334;BME280;14817;57.104;-2.094;2022-12-07T01:36:21;101527.16;;;1.68;100.00
27334;BME280;14817;57.104;-2.094;2022-12-07T01:38:50;101525.59;;;1.64;100.00
27334;BME280;14817;57.104;-2.094;2022-12-07T01:41:20;101519.25;;;1.68;100.00
27334;BME280;14817;57.104;-2.094;2022-12-07T01:44:22;101524.53;;;1.68;100.00
27334;BME280;14817;57.104;-2.094;2022-12-07T01:46:53;101521.81;;;1.70;100.00
27334;BME280;14817;57.104;-2.094;2022-12-07T01:52:23;101517.28;;;1.73;100.00
27334;BME280;14817;57.104;-2.094;2022-12-07T01:54:54;101514.41;;;1.78;100.00
27334;BME280;14817;57.104;-2.094;2022-12-07T01:57:23;101519.47;;;1.82;100.00
27334;BME280;14817;57.104;-2.094;2022-12-07T01:59:51;101512.13;;;1.89;100.00
27334;BME280;14817;57.104;-2.094;2022-12-07T02:02:23;101509.25;;;1.94;100.00
27334;BME280;14817;57.104;-2.094;2022-12-07T02:04:52;101504.47;;;2.02;100.00
27334;BME280;14817;57.104;-2.094;2022-12-07T02:07:20;101513.97;;;2.06;99.89
27334;BME280;14817;57.104;-2.094;2022-12-07T02:09:48;101516.53;;;2.08;99.74
27334;BME280;14817;57.104;-2.094;2022-12-07T02:12:15;101501.53;;;2.08;99.25
27334;BME280;14817;57.104;-2.094;2022-12-07T02:14:42;101501.75;;;2.03;99.42
27334;BME280;14817;57.104;-2.094;2022-12-07T02:17:14;101504.47;;;2.02;99.26
27334;BME280;14817;57.104;-2.094;2022-12-07T02:23:32;101498.34;;;2.01;99.46
27334;BME280;14817;57.104;-2.094;2022-12-07T02:29:44;101506.25;;;2.01;100.00
27334;BME280;14817;57.104;-2.094;2022-12-07T02:31:56;101507.75;;;2.07;100.00
27334;BME280;14817;57.104;-2.094;2022-12-07T02:34:37;101496.97;;;2.12;99.92
27334;BME280;14817;57.104;-2.094;2022-12-07T02:37:15;101480.22;;;2.11;100.00
27334;BME280;14817;57.104;-2.094;2022-12-07T02:39:50;101490.91;;;2.10;99.80
27334;BME280;14817;57.104;-2.094;2022-12-07T02:42:24;101484.53;;;2.14;100.00
27334;BME280;14817;57.104;-2.094;2022-12-07T02:44:53;101487.88;;;2.17;99.77
27334;BME280;14817;57.104;-2.094;2022-12-07T02:47:21;101483.13;;;2.24;99.68
27334;BME280;14817;57.104;-2.094;2022-12-07T02:49:50;101484.16;;;2.21;99.70
27334;BME280;14817;57.104;-2.094;2022-12-07T02:52:17;101485.78;;;2.24;99.35
27334;BME280;14817;57.104;-2.094;2022-12-07T02:54:44;101475.91;;;2.28;98.82
27334;BME280;14817;57.104;-2.094;2022-12-07T02:57:18;101478.50;;;2.29;99.35
27334;BME280;14817;57.104;-2.094;2022-12-07T03:00:01;101481.06;;;2.31;98.83
27334;BME280;14817;57.104;-2.094;2022-12-07T03:02:36;101477.34;;;2.35;98.50
27334;BME280;14817;57.104;-2.094;2022-12-07T03:16:14;101464.44;;;2.46;97.17
27334;BME280;14817;57.104;-2.094;2022-12-07T03:18:53;101465.59;;;2.40;97.43
27334;BME280;14817;57.104;-2.094;2022-12-07T03:21:25;101466.31;;;2.44;97.70
27334;BME280;14817;57.104;-2.094;2022-12-07T03:23:58;101469.88;;;2.43;97.41
27334;BME280;14817;57.104;-2.094;2022-12-07T03:26:40;101474.31;;;2.42;97.44
27334;BME280;14817;57.104;-2.094;2022-12-07T03:29:17;101485.59;;;2.46;97.37
27334;BME280;14817;57.104;-2.094;2022-12-07T03:31:50;101489.94;;;2.47;97.34
27334;BME280;14817;57.104;-2.094;2022-12-07T03:34:31;101470.34;;;2.34;97.67
27334;BME280;14817;57.104;-2.094;2022-12-07T03:39:49;101475.59;;;2.16;99.48
27334;BME280;14817;57.104;-2.094;2022-12-07T03:42:21;101467.81;;;2.13;99.97
27334;BME280;14817;57.104;-2.094;2022-12-07T03:44:48;101471.38;;;2.12;100.00
27334;BME280;14817;57.104;-2.094;2022-12-07T03:47:43;101475.03;;;2.10;100.00
27334;BME280;14817;57.104;-2.094;2022-12-07T03:50:31;101479.31;;;2.12;100.00
27334;BME280;14817;57.104;-2.094;2022-12-07T03:53:11;101477.53;;;2.13;100.00
27334;BME280;14817;57.104;-2.094;2022-12-07T03:55:42;101471.22;;;2.15;100.00
27334;BME280;14817;57.104;-2.094;2022-12-07T03:58:14;101474.88;;;2.13;100.00
27334;BME280;14817;57.104;-2.094;2022-12-07T04:00:42;101465.50;;;2.07;100.00
27334;BME280;14817;57.104;-2.094;2022-12-07T04:03:10;101439.97;;;2.06;100.00
27334;BME280;14817;57.104;-2.094;2022-12-07T04:05:39;101435.72;;;2.03;100.00
27334;BME280;14817;57.104;-2.094;2022-12-07T04:08:06;101436.78;;;1.99;100.00
27334;BME280;14817;57.104;-2.094;2022-12-07T04:10:33;101425.22;;;2.02;100.00
27334;BME280;14817;57.104;-2.094;2022-12-07T04:13:00;101427.06;;;2.00;100.00
27334;BME280;14817;57.104;-2.094;2022-12-07T04:15:27;101426.75;;;1.89;100.00
27334;BME280;14817;57.104;-2.094;2022-12-07T04:17:53;101430.47;;;1.84;100.00
27334;BME280;14817;57.104;-2.094;2022-12-07T04:20:21;101428.84;;;1.82;100.00
27334;BME280;14817;57.104;-2.094;2022-12-07T04:22:48;101419.91;;;1.84;100.00
27334;BME280;14817;57.104;-2.094;2022-12-07T04:25:16;101420.06;;;1.81;100.00
27334;BME280;14817;57.104;-2.094;2022-12-07T04:27:43;101420.91;;;1.82;100.00
27334;BME280;14817;57.104;-2.094;2022-12-07T04:30:10;101421.75;;;1.82;100.00
27334;BME280;14817;57.104;-2.094;2022-12-07T04:32:37;101428.75;;;1.83;100.00
27334;BME280;14817;57.104;-2.094;2022-12-07T04:35:04;101410.28;;;1.83;100.00
27334;BME280;14817;57.104;-2.094;2022-12-07T04:37:31;101415.22;;;1.90;100.00
27334;BME280;14817;57.104;-2.094;2022-12-07T04:39:58;101407.47;;;1.87;100.00
27334;BME280;14817;57.104;-2.094;2022-12-07T04:42:25;101407.47;;;1.87;100.00
27334;BME280;14817;57.104;-2.094;2022-12-07T04:44:51;101411.81;;;1.88;100.00
27334;BME280;14817;57.104;-2.094;2022-12-07T04:47:18;101403.44;;;1.79;100.00
27334;BME280;14817;57.104;-2.094;2022-12-07T04:49:45;101397.97;;;1.82;100.00
27334;BME280;14817;57.104;-2.094;2022-12-07T04:52:12;101407.47;;;1.87;100.00
27334;BME280;14817;57.104;-2.094;2022-12-07T04:54:39;101398.75;;;1.84;100.00
27334;BME280;14817;57.104;-2.094;2022-12-07T04:57:05;101395.34;;;1.82;100.00
27334;BME280;14817;57.104;-2.094;2022-12-07T04:59:32;101397.50;;;1.74;100.00
27334;BME280;14817;57.104;-2.094;2022-12-07T05:02:00;101391.97;;;1.79;100.00
27334;BME280;14817;57.104;-2.094;2022-12-07T05:04:27;101395.34;;;1.82;100.00
27334;BME280;14817;57.104;-2.094;2022-12-07T05:06:54;101387.72;;;1.76;100.00
27334;BME280;14817;57.104;-2.094;2022-12-07T05:09:21;101388.28;;;1.83;100.00
27334;BME280;14817;57.104;-2.094;2022-12-07T05:11:47;101382.06;;;1.84;100.00
27334;BME280;14817;57.104;-2.094;2022-12-07T05:14:21;101387.91;;;1.91;99.31
27334;BME280;14817;57.104;-2.094;2022-12-07T05:16:50;101372.91;;;1.91;98.95
27334;BME280;14817;57.104;-2.094;2022-12-07T05:19:18;101385.09;;;1.94;99.05
27334;BME280;14817;57.104;-2.094;2022-12-07T05:21:45;101397.94;;;2.01;98.07
27334;BME280;14817;57.104;-2.094;2022-12-07T05:24:13;101391.72;;;2.02;98.16
27334;BME280;14817;57.104;-2.094;2022-12-07T05:26:41;101397.72;;;2.06;97.57
27334;BME280;14817;57.104;-2.094;2022-12-07T05:29:11;101382.81;;;2.05;97.61
27334;BME280;14817;57.104;-2.094;2022-12-07T05:31:38;101392.66;;;2.01;97.51
27334;BME280;14817;57.104;-2.094;2022-12-07T05:34:05;101380.47;;;1.99;97.88
27334;BME280;14817;57.104;-2.094;2022-12-07T05:36:32;101383.88;;;2.01;97.52
27334;BME280;14817;57.104;-2.094;2022-12-07T05:38:59;101377.19;;;1.94;98.38
27334;BME280;14817;57.104;-2.094;2022-12-07T05:41:26;101378.19;;;1.91;98.58
27334;BME280;14817;57.104;-2.094;2022-12-07T05:44:11;101375.78;;;1.87;98.52
27334;BME280;14817;57.104;-2.094;2022-12-07T05:46:38;101367.84;;;1.87;98.63
27334;BME280;14817;57.104;-2.094;2022-12-07T05:49:04;101356.75;;;1.80;99.18
27334;BME280;14817;57.104;-2.094;2022-12-07T05:51:31;101368.69;;;1.87;99.75
27334;BME280;14817;57.104;-2.094;2022-12-07T05:53:58;101369.16;;;1.78;99.93
27334;BME280;14817;57.104;-2.094;2022-12-07T05:56:25;101365.50;;;1.80;100.00
27334;BME280;14817;57.104;-2.094;2022-12-07T05:58:53;101363.50;;;1.86;100.00
27334;BME280;14817;57.104;-2.094;2022-12-07T06:01:39;101366.00;;;1.89;100.00
27334;BME280;14817;57.104;-2.094;2022-12-07T06:04:06;101363.34;;;1.89;100.00
27334;BME280;14817;57.104;-2.094;2022-12-07T06:06:33;101352.78;;;1.89;100.00
27334;BME280;14817;57.104;-2.094;2022-12-07T06:09:00;101349.91;;;1.93;100.00
27334;BME280;14817;57.104;-2.094;2022-12-07T06:11:27;101347.34;;;1.92;100.00
27334;BME280;14817;57.104;-2.094;2022-12-07T06:14:12;101345.47;;;1.94;100.00
27334;BME280;14817;57.104;-2.094;2022-12-07T06:16:39;101345.66;;;1.91;100.00
27334;BME280;14817;57.104;-2.094;2022-12-07T06:19:06;101349.59;;;1.99;100.00
27334;BME280;14817;57.104;-2.094;2022-12-07T06:21:33;101337.50;;;1.95;100.00
27334;BME280;14817;57.104;-2.094;2022-12-07T06:24:00;101330.09;;;1.84;100.00
27334;BME280;14817;57.104;-2.094;2022-12-07T06:26:27;101336.47;;;1.80;100.00
27334;BME280;14817;57.104;-2.094;2022-12-07T06:28:54;101337.00;;;1.87;100.00
27334;BME280;14817;57.104;-2.094;2022-12-07T06:31:22;101332.81;;;1.83;100.00
27334;BME280;14817;57.104;-2.094;2022-12-07T06:33:49;101330.72;;;1.90;100.00
27334;BME280;14817;57.104;-2.094;2022-12-07T06:36:16;101327.53;;;1.83;100.00
27334;BME280;14817;57.104;-2.094;2022-12-07T06:38:48;101334.06;;;1.76;100.00
27334;BME280;14817;57.104;-2.094;2022-12-07T06:41:14;101323.44;;;1.77;100.00
27334;BME280;14817;57.104;-2.094;2022-12-07T06:43:41;101332.97;;;1.80;100.00
27334;BME280;14817;57.104;-2.094;2022-12-07T06:46:08;101328.00;;;1.74;100.00
27334;BME280;14817;57.104;-2.094;2022-12-07T06:48:35;101326.06;;;1.77;100.00
27334;BME280;14817;57.104;-2.094;2022-12-07T06:51:02;101322.72;;;1.74;100.00
27334;BME280;14817;57.104;-2.094;2022-12-07T06:53:29;101326.06;;;1.77;100.00
27334;BME280;14817;57.104;-2.094;2022-12-07T06:55:55;101329.25;;;1.84;100.00
27334;BME280;14817;57.104;-2.094;2022-12-07T06:58:23;101328.16;;;1.88;100.00
27334;BME280;14817;57.104;-2.094;2022-12-07T07:00:50;101328.06;;;1.90;100.00
27334;BME280;14817;57.104;-2.094;2022-12-07T07:03:17;101325.66;;;1.85;100.00
27334;BME280;14817;57.104;-2.094;2022-12-07T07:05:44;101325.53;;;1.88;100.00
27334;BME280;14817;57.104;-2.094;2022-12-07T07:08:11;101325.59;;;1.87;100.00
27334;BME280;14817;57.104;-2.094;2022-12-07T07:10:48;101319.53;;;1.84;100.00
27334;BME280;14817;57.104;-2.094;2022-12-07T07:13:15;101309.91;;;1.83;100.00
27334;BME280;14817;57.104;-2.094;2022-12-07T07:15:42;101327.09;;;1.92;100.00
27334;BME280;14817;57.104;-2.094;2022-12-07T07:18:09;101324.50;;;1.91;100.00
27334;BME280;14817;57.104;-2.094;2022-12-07T07:20:36;101320.78;;;1.95;100.00
27334;BME280;14817;57.104;-2.094;2022-12-07T07:23:04;101339.59;;;1.89;100.00
27334;BME280;14817;57.104;-2.094;2022-12-07T07:25:31;101332.44;;;1.73;100.00
27334;BME280;14817;57.104;-2.094;2022-12-07T07:27:57;101320.13;;;1.72;100.00
27334;BME280;14817;57.104;-2.094;2022-12-07T07:30:24;101313.00;;;1.74;100.00
27334;BME280;14817;57.104;-2.094;2022-12-07T07:32:56;101310.53;;;1.71;100.00
27334;BME280;14817;57.104;-2.094;2022-12-07T07:35:24;101314.19;;;1.69;100.00
27334;BME280;14817;57.104;-2.094;2022-12-07T07:37:51;101309.41;;;1.58;100.00
27334;BME280;14817;57.104;-2.094;2022-12-07T07:40:18;101302.91;;;1.65;100.00
27334;BME280;14817;57.104;-2.094;2022-12-07T07:42:50;101299.94;;;1.54;100.00
27334;BME280;14817;57.104;-2.094;2022-12-07T07:45:18;101308.06;;;1.49;100.00
27334;BME280;14817;57.104;-2.094;2022-12-07T07:47:45;101289.81;;;1.45;100.00
27334;BME280;14817;57.104;-2.094;2022-12-07T07:50:12;101297.13;;;1.39;100.00
27334;BME280;14817;57.104;-2.094;2022-12-07T07:52:39;101291.69;;;1.42;100.00
27334;BME280;14817;57.104;-2.094;2022-12-07T07:55:06;101287.41;;;1.40;100.00
27334;BME280;14817;57.104;-2.094;2022-12-07T07:57:38;101287.41;;;1.40;100.00
27334;BME280;14817;57.104;-2.094;2022-12-07T08:00:07;101283.53;;;1.47;100.00
27334;BME280;14817;57.104;-2.094;2022-12-07T08:02:42;101290.31;;;1.53;100.00
27334;BME280;14817;57.104;-2.094;2022-12-07T08:05:13;101290.84;;;1.59;100.00
27334;BME280;14817;57.104;-2.094;2022-12-07T08:07:40;101290.31;;;1.70;100.00
27334;BME280;14817;57.104;-2.094;2022-12-07T08:10:09;101287.44;;;1.75;100.00
27334;BME280;14817;57.104;-2.094;2022-12-07T08:12:38;101286.47;;;1.77;100.00
27334;BME280;14817;57.104;-2.094;2022-12-07T08:15:27;101286.59;;;1.74;100.00
27334;BME280;14817;57.104;-2.094;2022-12-07T08:17:54;101302.50;;;1.73;100.00
27334;BME280;14817;57.104;-2.094;2022-12-07T08:20:21;101294.69;;;1.71;100.00
27334;BME280;14817;57.104;-2.094;2022-12-07T08:22:48;101304.38;;;1.71;100.00
27334;BME280;14817;57.104;-2.094;2022-12-07T08:25:15;101299.97;;;1.71;100.00
27334;BME280;14817;57.104;-2.094;2022-12-07T08:27:42;101299.19;;;1.69;100.00
27334;BME280;14817;57.104;-2.094;2022-12-07T08:30:09;101288.75;;;1.66;100.00
27334;BME280;14817;57.104;-2.094;2022-12-07T08:32:36;101279.28;;;1.62;100.00
27334;BME280;14817;57.104;-2.094;2022-12-07T08:35:02;101277.81;;;1.56;100.00
27334;BME280;14817;57.104;-2.094;2022-12-07T08:37:29;101274.47;;;1.53;100.00
27334;BME280;14817;57.104;-2.094;2022-12-07T08:39:56;101278.47;;;1.42;100.00
27334;BME280;14817;57.104;-2.094;2022-12-07T08:42:23;101266.84;;;1.47;100.00
27334;BME280;14817;57.104;-2.094;2022-12-07T08:44:53;101257.47;;;1.41;100.00
27334;BME280;14817;57.104;-2.094;2022-12-07T08:47:20;101260.31;;;1.36;100.00
27334;BME280;14817;57.104;-2.094;2022-12-07T08:49:49;101254.25;;;1.34;100.00
27334;BME280;14817;57.104;-2.094;2022-12-07T08:52:18;101248.34;;;1.29;100.00
27334;BME280;14817;57.104;-2.094;2022-12-07T08:54:45;101240.78;;;1.21;100.00
27334;BME280;14817;57.104;-2.094;2022-12-07T08:57:12;101242.44;;;1.24;100.00
27334;BME280;14817;57.104;-2.094;2022-12-07T08:59:39;101243.66;;;1.17;100.00
27334;BME280;14817;57.104;-2.094;2022-12-07T09:02:05;101249.81;;;1.17;100.00
27334;BME280;14817;57.104;-2.094;2022-12-07T09:04:32;101246.16;;;1.20;100.00
27334;BME280;14817;57.104;-2.094;2022-12-07T09:06:59;101238.94;;;1.23;100.00
27334;BME280;14817;57.104;-2.094;2022-12-07T09:09:26;101236.22;;;1.25;100.00
27334;BME280;14817;57.104;-2.094;2022-12-07T09:11:53;101236.25;;;1.42;100.00
27334;BME280;14817;57.104;-2.094;2022-12-07T09:14:21;101236.13;;;1.63;100.00
27334;BME280;14817;57.104;-2.094;2022-12-07T09:16:48;101237.97;;;1.78;100.00
27334;BME280;14817;57.104;-2.094;2022-12-07T09:19:15;101235.19;;;1.99;100.00
27334;BME280;14817;57.104;-2.094;2022-12-07T09:21:41;101232.28;;;2.03;100.00
27334;BME280;14817;57.104;-2.094;2022-12-07T09:24:08;101228.13;;;2.15;100.00
27334;BME280;14817;57.104;-2.094;2022-12-07T09:26:35;101230.44;;;1.88;100.00
27334;BME280;14817;57.104;-2.094;2022-12-07T09:29:02;101238.16;;;1.75;100.00
27334;BME280;14817;57.104;-2.094;2022-12-07T09:31:29;101230.06;;;1.78;100.00
27334;BME280;14817;57.104;-2.094;2022-12-07T09:33:57;101230.13;;;1.59;100.00
27334;BME280;14817;57.104;-2.094;2022-12-07T09:36:25;101235.72;;;1.53;100.00
27334;BME280;14817;57.104;-2.094;2022-12-07T09:38:54;101233.47;;;1.46;100.00
27334;BME280;14817;57.104;-2.094;2022-12-07T09:41:23;101238.53;;;1.50;100.00
27334;BME280;14817;57.104;-2.094;2022-12-07T09:43:51;101242.72;;;1.54;100.00
27334;BME280;14817;57.104;-2.094;2022-12-07T09:46:19;101231.28;;;2.06;100.00
27334;BME280;14817;57.104;-2.094;2022-12-07T09:48:48;101223.34;;;2.06;100.00
27334;BME280;14817;57.104;-2.094;2022-12-07T09:51:21;101230.25;;;2.09;99.84
27334;BME280;14817;57.104;-2.094;2022-12-07T09:53:53;101224.50;;;2.67;99.01
27334;BME280;14817;57.104;-2.094;2022-12-07T09:56:21;101223.88;;;2.94;97.63
27334;BME280;14817;57.104;-2.094;2022-12-07T09:58:51;101225.06;;;3.20;96.07
27334;BME280;14817;57.104;-2.094;2022-12-07T10:01:21;101224.78;;;3.40;94.68
27334;BME280;14817;57.104;-2.094;2022-12-07T10:06:39;101223.97;;;2.76;94.84
27334;BME280;14817;57.104;-2.094;2022-12-07T10:09:11;101225.78;;;3.08;95.29
27334;BME280;14817;57.104;-2.094;2022-12-07T10:14:31;101215.88;;;3.41;93.69
27334;BME280;14817;57.104;-2.094;2022-12-07T10:17:30;101198.09;;;3.43;94.33
27334;BME280;14817;57.104;-2.094;2022-12-07T10:20:26;101205.56;;;2.91;95.14
27334;BME280;14817;57.104;-2.094;2022-12-07T10:22:57;101202.91;;;2.75;95.78
27334;BME280;14817;57.104;-2.094;2022-12-07T10:25:33;101202.91;;;2.59;96.36
27334;BME280;14817;57.104;-2.094;2022-12-07T10:28:09;101204.25;;;2.50;97.38
27334;BME280;14817;57.104;-2.094;2022-12-07T10:33:30;101194.72;;;2.48;98.48
27334;BME280;14817;57.104;-2.094;2022-12-07T10:35:59;101206.19;;;2.31;99.61
27334;BME280;14817;57.104;-2.094;2022-12-07T10:38:27;101183.91;;;2.19;100.00
27334;BME280;14817;57.104;-2.094;2022-12-07T10:41:07;101184.31;;;2.11;100.00
27334;BME280;14817;57.104;-2.094;2022-12-07T10:43:34;101182.22;;;2.18;100.00
27334;BME280;14817;57.104;-2.094;2022-12-07T10:46:17;101178.88;;;2.14;100.00
27334;BME280;14817;57.104;-2.094;2022-12-07T10:51:38;101163.75;;;2.34;100.00
27334;BME280;14817;57.104;-2.094;2022-12-07T10:54:27;101149.09;;;2.44;100.00
27334;BME280;14817;57.104;-2.094;2022-12-07T11:02:26;101141.91;;;2.30;100.00
27334;BME280;14817;57.104;-2.094;2022-12-07T11:05:52;101135.25;;;2.39;100.00
27334;BME280;14817;57.104;-2.094;2022-12-07T11:08:33;101144.66;;;2.44;100.00
27334;BME280;14817;57.104;-2.094;2022-12-07T11:11:23;101143.28;;;2.53;100.00
27334;BME280;14817;57.104;-2.094;2022-12-07T11:16:59;101132.03;;;2.65;100.00
27334;BME280;14817;57.104;-2.094;2022-12-07T11:19:42;101125.00;;;2.64;99.67
27334;BME280;14817;57.104;-2.094;2022-12-07T11:25:58;101111.06;;;2.62;98.90
27334;BME280;14817;57.104;-2.094;2022-12-07T11:28:23;101106.50;;;2.64;98.73
27334;BME280;14817;57.104;-2.094;2022-12-07T11:33:35;101092.53;;;2.62;98.91
27334;BME280;14817;57.104;-2.094;2022-12-07T11:36:31;101100.09;;;2.69;98.47
27334;BME280;14817;57.104;-2.094;2022-12-07T11:39:37;101093.47;;;2.61;98.48
27334;BME280;14817;57.104;-2.094;2022-12-07T11:42:09;101084.44;;;2.65;98.46
27334;BME280;14817;57.104;-2.094;2022-12-07T11:45:00;101082.34;;;2.71;97.94
27334;BME280;14817;57.104;-2.094;2022-12-07T11:47:36;101084.22;;;2.69;97.75
27334;BME280;14817;57.104;-2.094;2022-12-07T11:53:17;101062.91;;;2.72;97.65
27334;BME280;14817;57.104;-2.094;2022-12-07T11:56:01;101061.19;;;2.71;97.89
27334;BME280;14817;57.104;-2.094;2022-12-07T12:06:38;101053.69;;;2.79;97.27
27334;BME280;14817;57.104;-2.094;2022-12-07T12:09:36;101055.03;;;2.86;97.36
27334;BME280;14817;57.104;-2.094;2022-12-07T12:15:31;101055.13;;;2.84;97.46
27334;BME280;14817;57.104;-2.094;2022-12-07T12:20:57;101049.22;;;2.79;97.30
27334;BME280;14817;57.104;-2.094;2022-12-07T12:26:08;101040.81;;;2.73;97.61
27334;BME280;14817;57.104;-2.094;2022-12-07T12:31:32;101032.09;;;2.71;97.62
27334;BME280;14817;57.104;-2.094;2022-12-07T12:34:29;101033.84;;;2.72;97.34
27334;BME280;14817;57.104;-2.094;2022-12-07T12:36:48;101031.72;;;2.62;96.92
27334;BME280;14817;57.104;-2.094;2022-12-07T12:39:17;101021.81;;;2.66;97.43
27334;BME280;14817;57.104;-2.094;2022-12-07T12:46:46;101008.50;;;2.68;97.33
27334;BME280;14817;57.104;-2.094;2022-12-07T12:51:45;101015.81;;;2.78;97.38
27334;BME280;14817;57.104;-2.094;2022-12-07T12:54:35;101009.84;;;2.75;97.06
27334;BME280;14817;57.104;-2.094;2022-12-07T12:59:57;100999.22;;;2.91;96.87
27334;BME280;14817;57.104;-2.094;2022-12-07T13:02:29;101007.22;;;2.89;96.74
27334;BME280;14817;57.104;-2.094;2022-12-07T13:13:00;100991.94;;;2.94;96.76
27334;BME280;14817;57.104;-2.094;2022-12-07T13:15:49;100987.13;;;2.86;97.03
27334;BME280;14817;57.104;-2.094;2022-12-07T13:21:02;100992.41;;;2.86;97.95
27334;BME280;14817;57.104;-2.094;2022-12-07T13:26:03;100987.97;;;2.87;98.31
27334;BME280;14817;57.104;-2.094;2022-12-07T13:28:37;100994.56;;;2.80;98.72
27334;BME280;14817;57.104;-2.094;2022-12-07T13:31:12;100989.72;;;2.72;99.17
27334;BME280;14817;57.104;-2.094;2022-12-07T13:33:43;100982.22;;;2.64;99.47
27334;BME280;14817;57.104;-2.094;2022-12-07T13:36:36;100991.25;;;2.46;100.00
27334;BME280;14817;57.104;-2.094;2022-12-07T13:39:26;100988.31;;;2.20;100.00
27334;BME280;14817;57.104;-2.094;2022-12-07T13:41:56;100979.69;;;2.17;100.00
27334;BME280;14817;57.104;-2.094;2022-12-07T13:44:27;100972.78;;;2.14;100.00
27334;BME280;14817;57.104;-2.094;2022-12-07T13:47:12;100968.44;;;2.13;100.00
27334;BME280;14817;57.104;-2.094;2022-12-07T13:49:54;100973.50;;;2.02;100.00
27334;BME280;14817;57.104;-2.094;2022-12-07T13:52:30;100968.38;;;1.99;100.00
27334;BME280;14817;57.104;-2.094;2022-12-07T13:57:29;100962.91;;;2.02;100.00
27334;BME280;14817;57.104;-2.094;2022-12-07T14:00:06;100952.84;;;2.09;100.00
27334;BME280;14817;57.104;-2.094;2022-12-07T14:02:58;100947.75;;;2.06;100.00
27334;BME280;14817;57.104;-2.094;2022-12-07T14:05:34;100955.53;;;1.93;100.00
27334;BME280;14817;57.104;-2.094;2022-12-07T14:08:04;100949.28;;;1.94;100.00
27334;BME280;14817;57.104;-2.094;2022-12-07T14:10:34;100948.44;;;1.93;100.00
27334;BME280;14817;57.104;-2.094;2022-12-07T14:13:03;100934.41;;;1.93;100.00
27334;BME280;14817;57.104;-2.094;2022-12-07T14:15:52;100944.13;;;1.92;100.00
27334;BME280;14817;57.104;-2.094;2022-12-07T14:18:39;100936.00;;;1.95;100.00
27334;BME280;14817;57.104;-2.094;2022-12-07T14:23:37;100925.94;;;2.02;100.00
27334;BME280;14817;57.104;-2.094;2022-12-07T14:26:14;100941.53;;;2.07;100.00
27334;BME280;14817;57.104;-2.094;2022-12-07T14:28:42;100925.06;;;2.17;100.00
27334;BME280;14817;57.104;-2.094;2022-12-07T14:31:17;100927.44;;;2.22;100.00
27334;BME280;14817;57.104;-2.094;2022-12-07T14:33:59;100922.03;;;2.09;100.00
27334;BME280;14817;57.104;-2.094;2022-12-07T14:36:26;100927.66;;;2.03;100.00
27334;BME280;14817;57.104;-2.094;2022-12-07T14:38:52;100928.00;;;1.97;100.00
27334;BME280;14817;57.104;-2.094;2022-12-07T14:41:22;100930.91;;;1.92;100.00
27334;BME280;14817;57.104;-2.094;2022-12-07T14:44:12;100916.94;;;1.90;100.00
27334;BME280;14817;57.104;-2.094;2022-12-07T14:46:59;100917.84;;;1.89;100.00
27334;BME280;14817;57.104;-2.094;2022-12-07T14:49:46;100904.69;;;1.73;100.00
27334;BME280;14817;57.104;-2.094;2022-12-07T14:52:26;100896.91;;;1.70;100.00